Westfield, Indiana
Current Conditions -  °F | °C
As of 9:55 AM on Wednesday 26 Nov 2014 (Local Time) from KTYQ Reporting Station
Overcast Overcast  
Wind Chill: 28°   Ceiling: 1400
Heat Index: 28°   Visibility: 10mi
Dew Point: 20°   Wind: 3mph
Humidity: 74%   Direction: 100°E
Pressure: 30.15"   Gusts: NA
Location:  40.04°N, 86.13°W
Report Text: KTYQ 261455Z AUTO 10003KT 10SM OVC014 M02/M06 A3015 RMK AO2 T10241065
Loading
Personal Weather Stations






























Interactive Weather Map New forecast layout! Learn more

10-Day Weather Forecast

Advertisements
Track Severe Weather on mobile